createdAt,value
2022-08-16T00:00:52.258Z,74.11
2022-08-16T00:01:48.973Z,74.01
2022-08-16T00:02:49.096Z,74.01
2022-08-16T00:03:48.915Z,73.81
2022-08-16T00:04:51.108Z,73.81
2022-08-16T00:05:49.090Z,73.81
2022-08-16T00:06:49.887Z,73.71
2022-08-16T00:07:48.874Z,73.91
2022-08-16T00:08:49.876Z,73.81
2022-08-16T00:09:48.837Z,74.41
2022-08-16T00:10:48.857Z,74.55
2022-08-16T00:11:48.816Z,74.75
2022-08-16T00:12:49.075Z,74.95
2022-08-16T00:13:53.465Z,75.05
2022-08-16T00:14:49.787Z,75.05
2022-08-16T00:15:52.211Z,75.05
2022-08-16T00:17:01.478Z,74.95
2022-08-16T00:17:56.343Z,74.85
2022-08-16T00:18:49.735Z,74.75
2022-08-16T00:19:53.305Z,74.55
2022-08-16T00:20:50.739Z,74.41
2022-08-16T00:21:52.207Z,74.32
2022-08-16T00:22:49.673Z,74.21
2022-08-16T00:23:48.658Z,74.21
2022-08-16T00:24:51.423Z,74.01
2022-08-16T00:26:34.464Z,73.91
2022-08-16T00:26:49.622Z,73.81
2022-08-16T00:27:48.609Z,73.81
2022-08-16T00:28:48.598Z,73.81
2022-08-16T00:30:00.722Z,74.01
2022-08-16T00:30:49.594Z,74.25
2022-08-16T00:32:00.683Z,74.55
2022-08-16T00:32:49.774Z,74.65
2022-08-16T00:33:50.108Z,74.69
2022-08-16T00:34:52.704Z,74.89
2022-08-16T00:35:49.490Z,74.89
2022-08-16T00:36:48.499Z,74.79
2022-08-16T00:37:57.668Z,74.69
2022-08-16T00:38:49.451Z,74.89
2022-08-16T00:39:58.200Z,74.89
2022-08-16T00:40:50.960Z,75.02
2022-08-16T00:41:48.431Z,75.13
2022-08-16T00:42:48.683Z,75.33
2022-08-16T00:43:49.390Z,75.33
2022-08-16T00:44:48.380Z,75.53
2022-08-16T00:45:58.302Z,75.53
2022-08-16T00:46:52.980Z,75.53
2022-08-16T00:47:49.869Z,75.43
2022-08-16T00:48:48.329Z,75.63
2022-08-16T00:49:56.223Z,75.73
2022-08-16T00:50:49.292Z,75.73
2022-08-16T00:51:55.094Z,75.83
2022-08-16T00:52:51.318Z,75.93
2022-08-16T00:53:48.252Z,76.03
2022-08-16T00:54:48.242Z,76.14
2022-08-16T00:55:48.231Z,76.03
2022-08-16T00:56:56.495Z,76.03
2022-08-16T00:57:59.609Z,76.14
2022-08-16T00:58:49.191Z,76.14
2022-08-16T00:59:54.864Z,76.43
2022-08-16T01:00:53.986Z,76.47
2022-08-16T01:01:49.153Z,76.27
2022-08-16T01:02:48.984Z,76.47
2022-08-16T01:03:48.121Z,76.67
2022-08-16T01:05:09.275Z,76.77
2022-08-16T01:05:49.081Z,76.87
2022-08-16T01:06:49.097Z,76.77
2022-08-16T01:07:51.193Z,76.87
2022-08-16T01:08:49.054Z,76.97
2022-08-16T01:09:48.034Z,76.87
2022-08-16T01:10:48.035Z,76.77
2022-08-16T01:11:53.800Z,76.77
2022-08-16T01:12:49.225Z,76.87
2022-08-16T01:13:47.985Z,77.21
2022-08-16T01:14:47.974Z,77.42
2022-08-16T01:15:47.961Z,77.51
2022-08-16T01:16:49.164Z,77.72
2022-08-16T01:17:47.944Z,77.92
2022-08-16T01:18:48.924Z,77.82
2022-08-16T01:19:56.963Z,77.82
2022-08-16T01:20:47.910Z,77.82
2022-08-16T01:21:47.902Z,77.72
2022-08-16T01:22:59.085Z,77.51
2022-08-16T01:23:58.499Z,77.38
2022-08-16T01:24:54.102Z,77.17
2022-08-16T01:25:59.965Z,77.28
2022-08-16T01:26:48.831Z,77.38
2022-08-16T01:27:47.811Z,77.51
2022-08-16T01:28:47.789Z,77.42
2022-08-16T01:29:58.196Z,77.51
2022-08-16T01:30:49.423Z,77.38
2022-08-16T01:31:47.762Z,77.31
2022-08-16T01:33:01.734Z,77.31
2022-08-16T01:33:49.698Z,77.21
2022-08-16T01:34:47.751Z,77.31
2022-08-16T01:35:52.906Z,77.11
2022-08-16T01:36:47.704Z,77.11
2022-08-16T01:37:53.136Z,77.11
2022-08-16T01:38:51.246Z,77.11
2022-08-16T01:39:48.666Z,77.21
2022-08-16T01:40:47.642Z,77.11
2022-08-16T01:41:47.622Z,77.11
2022-08-16T01:42:48.185Z,77.11
2022-08-16T01:43:47.614Z,77.11
2022-08-16T01:44:48.573Z,77.21
2022-08-16T01:45:47.551Z,77.31
2022-08-16T01:46:48.551Z,77.31
2022-08-16T01:47:49.492Z,77.21
2022-08-16T01:48:47.515Z,76.91
2022-08-16T01:51:08.153Z,76.51
2022-08-16T01:51:08.296Z,76.31
2022-08-16T01:51:48.474Z,76.10
2022-08-16T01:52:47.747Z,76.10
2022-08-16T01:53:54.524Z,76.10
2022-08-16T01:54:48.432Z,76.10
2022-08-16T01:55:53.830Z,76.20
2022-08-16T01:56:48.403Z,76.31
2022-08-16T01:57:53.169Z,76.40
2022-08-16T01:58:48.371Z,76.61
2022-08-16T01:59:47.377Z,76.61
2022-08-16T02:00:48.354Z,76.61
2022-08-16T02:01:52.530Z,76.51
2022-08-16T02:02:52.520Z,76.40
2022-08-16T02:03:50.479Z,76.40
2022-08-16T02:04:49.028Z,76.40
2022-08-16T02:05:51.930Z,76.40
2022-08-16T02:06:47.274Z,76.40
2022-08-16T02:07:47.269Z,76.40
2022-08-16T02:08:47.275Z,76.51
2022-08-16T02:09:56.935Z,76.71
2022-08-16T02:10:48.216Z,76.81
2022-08-16T02:11:48.412Z,76.91
2022-08-16T02:12:51.629Z,76.95
2022-08-16T02:13:48.246Z,76.84
2022-08-16T02:14:48.146Z,76.81
2022-08-16T02:15:47.166Z,76.81
2022-08-16T02:16:47.129Z,76.81
2022-08-16T02:17:47.128Z,77.04
2022-08-16T02:18:48.124Z,77.35
2022-08-16T02:20:00.037Z,77.55
2022-08-16T02:20:48.082Z,77.66
2022-08-16T02:22:08.584Z,77.55
2022-08-16T02:22:48.345Z,77.55
2022-08-16T02:23:47.067Z,77.66
2022-08-16T02:24:48.017Z,77.66
2022-08-16T02:25:52.844Z,77.75
2022-08-16T02:26:48.007Z,77.75
2022-08-16T02:27:50.662Z,77.66
2022-08-16T02:28:47.364Z,77.75
2022-08-16T02:29:46.975Z,77.75
2022-08-16T02:30:50.875Z,77.75
2022-08-16T02:32:04.030Z,77.75
2022-08-16T02:32:51.266Z,77.75
2022-08-16T02:33:49.973Z,77.66
2022-08-16T02:34:46.888Z,77.75
2022-08-16T02:35:54.074Z,77.66
2022-08-16T02:36:49.948Z,77.59
2022-08-16T02:37:53.036Z,77.89
2022-08-16T02:38:47.858Z,78.30
2022-08-16T02:39:46.904Z,78.63
2022-08-16T02:40:47.808Z,78.53
2022-08-16T02:41:46.913Z,78.63
2022-08-16T02:42:49.743Z,78.74
2022-08-16T02:43:46.786Z,78.70
2022-08-16T02:44:46.758Z,78.50
2022-08-16T02:45:46.745Z,78.30
2022-08-16T02:46:50.471Z,78.09
2022-08-16T02:48:01.430Z,77.99
2022-08-16T02:48:49.272Z,77.89
2022-08-16T02:50:52.438Z,77.69
2022-08-16T02:50:53.545Z,77.69
2022-08-16T02:51:47.659Z,77.79
2022-08-16T02:52:46.702Z,77.89
2022-08-16T02:53:46.693Z,77.79
2022-08-16T02:54:46.633Z,77.79
2022-08-16T02:55:50.529Z,77.89
2022-08-16T02:56:47.898Z,77.79
2022-08-16T02:57:53.916Z,77.79
2022-08-16T02:58:47.722Z,77.69
2022-08-16T02:59:46.559Z,77.69
2022-08-16T03:00:50.167Z,77.79
2022-08-16T03:01:46.586Z,77.89
2022-08-16T03:02:46.747Z,78.03
2022-08-16T03:04:39.439Z,78.33
2022-08-16T03:04:52.473Z,78.63
2022-08-16T03:05:49.933Z,78.97
2022-08-16T03:06:47.460Z,79.08
2022-08-16T03:07:50.639Z,79.28
2022-08-16T03:08:50.677Z,79.28
2022-08-16T03:09:47.451Z,79.38
2022-08-16T03:10:46.442Z,79.38
2022-08-16T03:11:46.403Z,79.28
2022-08-16T03:12:56.013Z,79.38
2022-08-16T03:13:47.538Z,79.38
2022-08-16T03:14:46.352Z,79.38
2022-08-16T03:15:46.342Z,79.38
2022-08-16T03:16:59.212Z,79.38
2022-08-16T03:17:53.174Z,79.38
2022-08-16T03:18:47.316Z,79.38
2022-08-16T03:19:48.028Z,79.38
2022-08-16T03:20:55.651Z,79.08
2022-08-16T03:21:47.263Z,78.88
2022-08-16T03:22:46.368Z,78.67
2022-08-16T03:23:46.253Z,78.57
2022-08-16T03:24:46.243Z,78.67
2022-08-16T03:25:48.397Z,78.77
2022-08-16T03:26:46.316Z,78.97
2022-08-16T03:27:46.186Z,79.08
2022-08-16T03:28:46.162Z,78.88
2022-08-16T03:29:54.400Z,78.97
2022-08-16T03:30:47.581Z,78.97
2022-08-16T03:31:46.136Z,78.97
2022-08-16T03:32:51.126Z,78.88
2022-08-16T03:33:46.103Z,78.77
2022-08-16T03:34:49.902Z,79.17
2022-08-16T03:35:46.084Z,79.28
2022-08-16T03:36:46.062Z,79.08
2022-08-16T03:38:01.634Z,79.08
2022-08-16T03:38:47.032Z,79.17
2022-08-16T03:39:46.070Z,79.52
2022-08-16T03:40:46.004Z,79.72
2022-08-16T03:41:50.200Z,79.72
2022-08-16T03:43:19.043Z,79.82
2022-08-16T03:43:50.613Z,79.82
2022-08-16T03:44:47.640Z,79.82
2022-08-16T03:45:45.932Z,79.82
2022-08-16T03:46:50.089Z,80.02
2022-08-16T03:47:45.915Z,80.22
2022-08-16T03:48:45.936Z,80.32
2022-08-16T03:49:45.884Z,80.32
2022-08-16T03:51:00.152Z,80.32
2022-08-16T03:51:46.857Z,80.43
2022-08-16T03:52:45.985Z,80.53
2022-08-16T03:53:45.846Z,80.53
2022-08-16T03:54:57.547Z,80.43
2022-08-16T03:55:46.802Z,80.22
2022-08-16T03:56:57.068Z,80.43
2022-08-16T03:57:52.248Z,80.32
2022-08-16T03:58:48.389Z,80.32
2022-08-16T03:59:45.755Z,80.43
2022-08-16T04:00:45.781Z,80.53
2022-08-16T04:01:45.790Z,80.53
2022-08-16T04:02:46.898Z,80.53
2022-08-16T04:03:45.696Z,80.32
2022-08-16T04:04:45.696Z,80.12
2022-08-16T04:05:46.760Z,80.32
2022-08-16T04:06:45.656Z,80.53
2022-08-16T04:07:45.654Z,80.36
2022-08-16T04:08:45.628Z,80.36
2022-08-16T04:09:45.691Z,80.46
2022-08-16T04:10:45.607Z,80.57
2022-08-16T04:11:46.588Z,80.66
2022-08-16T04:13:04.146Z,80.77
2022-08-16T04:14:00.533Z,80.97
2022-08-16T04:14:48.104Z,81.17
2022-08-16T04:15:45.548Z,81.27
2022-08-16T04:16:45.549Z,81.27
2022-08-16T04:17:45.520Z,81.17
2022-08-16T04:18:46.141Z,81.07
2022-08-16T04:19:46.687Z,81.07
2022-08-16T04:20:45.477Z,81.27
2022-08-16T04:21:45.872Z,81.37
2022-08-16T04:22:45.483Z,81.37
2022-08-16T04:23:45.435Z,81.37
2022-08-16T04:24:55.095Z,81.37
2022-08-16T04:25:47.068Z,81.27
2022-08-16T04:26:46.064Z,81.17
2022-08-16T04:27:55.818Z,80.97
2022-08-16T04:28:55.685Z,80.57
2022-08-16T04:29:46.628Z,80.16
2022-08-16T04:30:45.329Z,79.86
2022-08-16T04:31:45.329Z,79.55
2022-08-16T04:32:49.208Z,79.21
2022-08-16T04:33:50.740Z,79.01
2022-08-16T04:34:46.323Z,78.81
2022-08-16T04:35:45.279Z,78.61
2022-08-16T04:36:45.270Z,78.50
2022-08-16T04:37:45.251Z,78.41
2022-08-16T04:38:45.240Z,78.30
2022-08-16T04:39:47.405Z,78.20
2022-08-16T04:40:46.241Z,78.20
2022-08-16T04:41:45.205Z,78.20
2022-08-16T04:42:45.192Z,78.10
2022-08-16T04:43:45.171Z,78.20
2022-08-16T04:44:54.397Z,78.20
2022-08-16T04:45:46.152Z,78.20
2022-08-16T04:47:02.627Z,78.30
2022-08-16T04:47:46.122Z,78.61
2022-08-16T04:48:46.112Z,78.71
2022-08-16T04:49:46.093Z,78.95
2022-08-16T04:50:45.121Z,78.95
2022-08-16T04:51:45.083Z,79.01
2022-08-16T04:52:46.097Z,79.21
2022-08-16T04:53:45.045Z,79.41
2022-08-16T04:54:45.042Z,79.52
2022-08-16T04:55:45.024Z,79.52
2022-08-16T04:56:46.276Z,79.41
2022-08-16T04:57:45.000Z,79.52
2022-08-16T04:58:47.081Z,79.52
2022-08-16T04:59:44.989Z,79.92
2022-08-16T05:00:44.952Z,80.02
2022-08-16T05:01:58.191Z,80.12
2022-08-16T05:02:45.963Z,80.22
2022-08-16T05:04:00.210Z,80.22
2022-08-16T05:04:45.948Z,80.12
2022-08-16T05:05:55.872Z,80.32
2022-08-16T05:06:46.216Z,80.43
2022-08-16T05:07:58.346Z,80.22
2022-08-16T05:08:47.383Z,80.32
2022-08-16T05:09:48.986Z,80.29
2022-08-16T05:10:44.814Z,80.19
2022-08-16T05:11:44.803Z,80.19
2022-08-16T05:12:44.903Z,80.29
2022-08-16T05:13:44.794Z,80.39
2022-08-16T05:14:46.574Z,80.39
2022-08-16T05:15:45.754Z,80.19
2022-08-16T05:16:44.736Z,80.19
2022-08-16T05:17:44.734Z,80.29
2022-08-16T05:18:44.716Z,80.39
2022-08-16T05:19:46.515Z,80.39
2022-08-16T05:20:54.026Z,80.19
2022-08-16T05:21:45.676Z,79.99
2022-08-16T05:22:44.703Z,79.99
2022-08-16T05:23:51.597Z,80.08
2022-08-16T05:24:45.652Z,79.99
2022-08-16T05:25:48.325Z,79.99
2022-08-16T05:26:49.600Z,79.99
2022-08-16T05:27:47.773Z,80.29
2022-08-16T05:28:46.199Z,80.29
2022-08-16T05:29:57.666Z,80.49
2022-08-16T05:30:45.565Z,80.49
2022-08-16T05:31:48.224Z,80.39
2022-08-16T05:32:45.895Z,80.35
2022-08-16T05:33:44.525Z,80.35
2022-08-16T05:34:45.527Z,80.15
2022-08-16T05:35:44.498Z,80.25
2022-08-16T05:36:45.467Z,80.15
2022-08-16T05:37:44.486Z,80.25
2022-08-16T05:38:44.438Z,80.25
2022-08-16T05:39:44.492Z,80.15
2022-08-16T05:40:59.603Z,79.91
2022-08-16T05:41:45.983Z,79.30
2022-08-16T05:42:47.795Z,79.21
2022-08-16T05:43:46.786Z,79.10
2022-08-16T05:44:44.368Z,79.21
2022-08-16T05:45:44.385Z,79.41
2022-08-16T05:46:45.337Z,79.30
2022-08-16T05:47:44.325Z,79.10
2022-08-16T05:48:44.315Z,79.16
2022-08-16T05:49:45.306Z,79.16
2022-08-16T05:50:45.311Z,79.27
2022-08-16T05:51:45.727Z,79.27
2022-08-16T05:52:44.896Z,79.36
2022-08-16T05:53:44.249Z,79.06
2022-08-16T05:54:47.491Z,78.96
2022-08-16T05:55:44.251Z,78.66
2022-08-16T05:56:44.201Z,78.36
2022-08-16T05:57:45.219Z,78.36
2022-08-16T05:58:45.186Z,78.26
2022-08-16T05:59:44.167Z,78.22
2022-08-16T06:00:44.159Z,78.22
2022-08-16T06:01:44.166Z,78.42
2022-08-16T06:02:44.179Z,78.32
2022-08-16T06:03:44.132Z,78.22
2022-08-16T06:04:44.878Z,78.32
2022-08-16T06:05:44.109Z,78.32
2022-08-16T06:06:55.877Z,78.22
2022-08-16T06:07:45.070Z,78.28
2022-08-16T06:08:46.442Z,78.28
2022-08-16T06:09:44.664Z,78.19
2022-08-16T06:11:02.573Z,78.28
2022-08-16T06:11:45.020Z,78.19
2022-08-16T06:12:44.068Z,78.08
2022-08-16T06:13:44.011Z,78.19
2022-08-16T06:14:44.012Z,78.39
2022-08-16T06:15:43.982Z,78.28
2022-08-16T06:16:43.934Z,78.19
2022-08-16T06:17:44.613Z,77.98
2022-08-16T06:18:43.931Z,77.64
2022-08-16T06:19:44.681Z,77.44
2022-08-16T06:20:55.238Z,77.34
2022-08-16T06:21:44.873Z,77.14
2022-08-16T06:22:44.622Z,77.34
2022-08-16T06:23:43.842Z,77.44
2022-08-16T06:24:53.374Z,77.64
2022-08-16T06:25:52.995Z,77.55
2022-08-16T06:26:45.003Z,77.55
2022-08-16T06:27:57.455Z,77.61
2022-08-16T06:28:44.780Z,77.61
2022-08-16T06:29:43.763Z,77.40
2022-08-16T06:30:45.373Z,77.50
2022-08-16T06:31:49.176Z,77.50
2022-08-16T06:32:48.456Z,77.40
2022-08-16T06:33:44.676Z,77.31
2022-08-16T06:34:56.044Z,77.31
2022-08-16T06:35:44.675Z,77.40
2022-08-16T06:36:43.703Z,77.50
2022-08-16T06:37:47.555Z,77.50
2022-08-16T06:38:52.301Z,77.50
2022-08-16T06:39:49.187Z,77.27
2022-08-16T06:40:49.292Z,77.27
2022-08-16T06:41:43.605Z,77.37
2022-08-16T06:42:47.978Z,77.07
2022-08-16T06:43:43.585Z,77.07
2022-08-16T06:44:43.571Z,77.27
2022-08-16T06:45:43.776Z,77.27
2022-08-16T06:46:43.535Z,77.37
2022-08-16T06:47:54.445Z,77.13
2022-08-16T06:48:48.318Z,77.33
2022-08-16T06:49:52.904Z,77.23
2022-08-16T06:50:44.516Z,77.13
2022-08-16T06:51:46.419Z,76.83
2022-08-16T06:52:57.997Z,76.63
2022-08-16T06:53:44.455Z,76.59
2022-08-16T06:54:43.424Z,76.39
2022-08-16T06:55:44.435Z,76.49
2022-08-16T06:56:43.455Z,76.39
2022-08-16T06:57:43.399Z,76.29
2022-08-16T06:58:43.378Z,76.09
2022-08-16T06:59:52.198Z,76.09
2022-08-16T07:00:44.421Z,76.19
2022-08-16T07:01:53.649Z,76.25
2022-08-16T07:02:51.290Z,76.05
2022-08-16T07:03:54.970Z,76.05
2022-08-16T07:04:44.296Z,75.65
2022-08-16T07:05:43.319Z,75.55
2022-08-16T07:06:43.544Z,75.65
2022-08-16T07:07:43.257Z,75.65
2022-08-16T07:08:43.247Z,75.92
2022-08-16T07:09:43.228Z,75.92
2022-08-16T07:10:43.246Z,75.82
2022-08-16T07:11:45.738Z,75.31
2022-08-16T07:12:47.051Z,75.51
2022-08-16T07:14:03.894Z,75.42
2022-08-16T07:14:44.178Z,75.58
2022-08-16T07:15:50.062Z,75.48
2022-08-16T07:16:44.169Z,75.38
2022-08-16T07:17:43.118Z,75.08
2022-08-16T07:18:59.295Z,75.18
2022-08-16T07:20:47.370Z,74.98
2022-08-16T07:21:46.143Z,74.84
2022-08-16T07:22:42.793Z,74.94
2022-08-16T07:23:42.783Z,75.14
2022-08-16T07:24:45.981Z,75.04
2022-08-16T07:25:41.751Z,75.14
2022-08-16T07:26:41.742Z,74.94
2022-08-16T07:27:42.765Z,74.90
2022-08-16T07:28:41.712Z,74.80
2022-08-16T07:29:41.701Z,74.80
2022-08-16T07:30:46.412Z,74.71
2022-08-16T07:31:42.692Z,74.71
2022-08-16T07:32:41.688Z,74.60
2022-08-16T07:33:53.775Z,74.10
2022-08-16T07:34:48.307Z,74.10
2022-08-16T07:35:44.434Z,74.17
2022-08-16T07:36:42.614Z,74.27
2022-08-16T07:37:41.605Z,74.07
2022-08-16T07:38:41.565Z,74.27
2022-08-16T07:39:43.087Z,74.37
2022-08-16T07:41:00.713Z,74.17
2022-08-16T07:41:42.551Z,73.77
2022-08-16T07:42:41.515Z,73.67
2022-08-16T07:43:41.733Z,74.07
2022-08-16T07:44:50.259Z,73.83
2022-08-16T07:45:43.193Z,73.93
2022-08-16T07:46:41.476Z,74.03
2022-08-16T07:47:42.049Z,74.03
2022-08-16T07:48:41.435Z,73.73
2022-08-16T07:49:53.119Z,73.53
2022-08-16T07:50:56.185Z,73.60
2022-08-16T07:51:42.432Z,73.19
2022-08-16T07:52:41.396Z,72.69
2022-08-16T07:53:43.626Z,72.69
2022-08-16T07:54:45.718Z,72.80
2022-08-16T07:55:47.863Z,72.60
2022-08-16T07:56:42.347Z,72.50
2022-08-16T07:57:55.901Z,72.39
2022-08-16T07:58:42.302Z,72.19
2022-08-16T07:59:42.865Z,72.09
2022-08-16T08:00:42.311Z,72.26
2022-08-16T08:01:41.278Z,72.16
2022-08-16T08:02:41.277Z,72.26
2022-08-16T08:03:44.918Z,72.06
2022-08-16T08:04:42.216Z,72.36
2022-08-16T08:05:41.275Z,72.26
2022-08-16T08:06:41.207Z,71.86
2022-08-16T08:07:45.250Z,71.86
2022-08-16T08:08:50.145Z,71.86
2022-08-16T08:09:43.507Z,72.16
2022-08-16T08:10:41.139Z,72.26
2022-08-16T08:11:41.158Z,71.92
2022-08-16T08:12:43.789Z,71.83
2022-08-16T08:13:42.539Z,71.92
2022-08-16T08:14:41.091Z,71.62
2022-08-16T08:15:52.490Z,71.23
2022-08-16T08:16:45.366Z,71.12
2022-08-16T08:17:43.136Z,71.03
2022-08-16T08:18:41.044Z,71.12
2022-08-16T08:19:42.038Z,71.12
2022-08-16T08:20:42.011Z,70.92
2022-08-16T08:21:59.635Z,70.83
2022-08-16T08:22:41.982Z,71.09
2022-08-16T08:23:42.522Z,70.79
2022-08-16T08:24:43.943Z,70.49
2022-08-16T08:25:54.848Z,70.09
2022-08-16T08:26:43.017Z,69.99
2022-08-16T08:27:40.922Z,70.19
2022-08-16T08:28:40.902Z,70.49
2022-08-16T08:29:40.901Z,70.79
2022-08-16T08:30:51.144Z,70.79
2022-08-16T08:31:41.901Z,70.26
2022-08-16T08:32:58.624Z,69.86
2022-08-16T08:33:46.688Z,69.66
2022-08-16T08:34:41.824Z,69.66
2022-08-16T08:35:40.819Z,69.66
2022-08-16T08:36:40.816Z,69.96
2022-08-16T08:37:54.763Z,69.36
2022-08-16T08:38:44.962Z,69.56
2022-08-16T08:39:54.690Z,70.76
2022-08-16T08:40:41.733Z,70.26
2022-08-16T08:41:40.755Z,70.53
2022-08-16T08:42:40.743Z,69.73
2022-08-16T08:43:41.828Z,69.93
2022-08-16T08:44:40.693Z,69.73
2022-08-16T08:45:48.092Z,70.12
2022-08-16T08:46:41.684Z,70.12
2022-08-16T08:47:40.654Z,69.20
2022-08-16T08:48:43.921Z,68.89
2022-08-16T08:49:50.319Z,68.70
2022-08-16T08:50:41.609Z,68.89
2022-08-16T08:51:41.634Z,68.99
2022-08-16T08:52:40.746Z,69.09
2022-08-16T08:53:40.573Z,68.89
2022-08-16T08:54:40.552Z,67.46
2022-08-16T08:55:40.565Z,67.57
2022-08-16T08:56:45.317Z,68.16
2022-08-16T08:57:41.525Z,68.76
2022-08-16T08:58:40.503Z,68.46
2022-08-16T08:59:41.518Z,68.46
2022-08-16T09:00:50.386Z,68.23
2022-08-16T09:01:56.696Z,67.63
2022-08-16T09:02:41.522Z,67.73
2022-08-16T09:03:40.493Z,67.23
2022-08-16T09:04:40.424Z,65.80
2022-08-16T09:05:40.414Z,65.11
2022-08-16T09:06:43.738Z,65.01
2022-08-16T09:08:01.746Z,64.90
2022-08-16T09:08:41.358Z,63.41
2022-08-16T09:09:41.409Z,63.41
2022-08-16T09:10:40.898Z,63.71
2022-08-16T09:11:41.023Z,64.90
2022-08-16T09:12:40.338Z,64.51
2022-08-16T09:13:47.353Z,63.91
2022-08-16T09:14:49.440Z,63.91
2022-08-16T09:15:41.268Z,64.11
2022-08-16T09:17:01.627Z,63.91
2022-08-16T09:17:51.481Z,63.41
2022-08-16T09:18:41.259Z,63.28
2022-08-16T09:19:40.850Z,63.38
2022-08-16T09:20:59.527Z,63.38
2022-08-16T09:21:41.204Z,63.08
2022-08-16T09:22:40.208Z,63.08
2022-08-16T09:23:40.168Z,62.68
2022-08-16T09:24:52.910Z,62.98
2022-08-16T09:25:41.142Z,62.98
2022-08-16T09:26:44.723Z,62.78
2022-08-16T09:27:57.290Z,62.08
2022-08-16T09:29:15.751Z,61.49
2022-08-16T09:29:45.232Z,61.58
2022-08-16T09:30:44.344Z,62.05
2022-08-16T09:31:41.920Z,61.76
2022-08-16T09:32:40.059Z,61.76
2022-08-16T09:33:41.048Z,62.26
2022-08-16T09:34:40.011Z,62.85
2022-08-16T09:35:42.550Z,62.65
2022-08-16T09:36:46.159Z,62.32
2022-08-16T09:37:40.988Z,62.23
2022-08-16T09:38:40.744Z,61.63
2022-08-16T09:39:41.430Z,61.53
2022-08-16T09:40:42.419Z,61.33
2022-08-16T09:41:39.924Z,61.13
2022-08-16T09:42:55.862Z,60.63
2022-08-16T09:43:59.294Z,60.83
2022-08-16T09:45:11.995Z,61.93
2022-08-16T09:45:40.873Z,61.10
2022-08-16T09:46:49.055Z,61.10
2022-08-16T09:47:56.631Z,61.00
2022-08-16T09:48:44.844Z,61.60
2022-08-16T09:49:41.363Z,60.90
2022-08-16T09:50:39.930Z,60.70
2022-08-16T09:51:39.793Z,60.90
2022-08-16T09:52:44.416Z,60.30
2022-08-16T09:53:40.763Z,59.31
2022-08-16T09:54:39.750Z,59.31
2022-08-16T09:55:44.495Z,59.58
2022-08-16T09:56:52.335Z,60.08
2022-08-16T09:57:40.723Z,60.38
2022-08-16T09:59:05.169Z,60.27
2022-08-16T09:59:42.119Z,60.38
2022-08-16T10:00:44.991Z,59.88
2022-08-16T10:01:43.385Z,60.27
2022-08-16T10:02:44.221Z,60.14
2022-08-16T10:04:01.732Z,60.25
2022-08-16T10:04:54.895Z,60.14
2022-08-16T10:05:40.605Z,59.95
2022-08-16T10:06:39.584Z,60.25
2022-08-16T10:07:44.938Z,60.84
2022-08-16T10:09:04.348Z,60.44
2022-08-16T10:09:44.761Z,60.05
2022-08-16T10:10:40.540Z,59.95
2022-08-16T10:11:50.293Z,59.62
2022-08-16T10:12:42.554Z,59.82
2022-08-16T10:13:39.504Z,59.52
2022-08-16T10:14:39.477Z,58.83
2022-08-16T10:15:40.475Z,58.43
2022-08-16T10:16:39.459Z,58.03
2022-08-16T10:17:39.470Z,57.83
2022-08-16T10:18:56.070Z,58.83
2022-08-16T10:19:40.418Z,58.33
2022-08-16T10:20:39.389Z,58.33
2022-08-16T10:21:39.475Z,58.60
2022-08-16T10:22:39.377Z,59.09
2022-08-16T10:23:39.379Z,58.60
2022-08-16T10:24:39.362Z,59.07
2022-08-16T10:27:17.537Z,56.78
2022-08-16T10:27:18.015Z,55.69
2022-08-16T10:27:47.282Z,55.49
2022-08-16T10:28:41.877Z,56.59
2022-08-16T10:29:59.954Z,54.90
2022-08-16T10:30:40.265Z,56.16
2022-08-16T10:31:44.241Z,55.47
2022-08-16T10:32:40.260Z,56.36
2022-08-16T10:33:40.261Z,55.87
2022-08-16T10:34:39.190Z,54.77
2022-08-16T10:35:46.624Z,55.66
2022-08-16T10:36:40.180Z,56.16
2022-08-16T10:37:39.190Z,56.36
2022-08-16T10:38:39.157Z,54.97
2022-08-16T10:39:41.696Z,55.94
2022-08-16T10:40:39.161Z,56.73
2022-08-16T10:41:40.112Z,55.94
2022-08-16T10:42:39.130Z,56.53
2022-08-16T10:43:39.095Z,55.54
2022-08-16T10:44:39.073Z,55.21
2022-08-16T10:45:39.072Z,55.32
2022-08-16T10:46:41.785Z,52.04
2022-08-16T10:47:39.059Z,51.45
2022-08-16T10:48:39.108Z,52.14
2022-08-16T10:49:39.015Z,52.94
2022-08-16T10:50:39.000Z,53.13
2022-08-16T10:52:01.059Z,52.14
2022-08-16T10:53:39.548Z,53.41
2022-08-16T10:54:58.723Z,52.91
2022-08-16T10:55:40.469Z,52.02
2022-08-16T10:56:52.749Z,51.03
2022-08-16T10:57:39.918Z,51.10
2022-08-16T10:58:38.893Z,50.81
2022-08-16T10:59:51.781Z,50.90
2022-08-16T11:00:39.865Z,52.09
2022-08-16T11:01:43.639Z,51.60
2022-08-16T11:02:58.566Z,49.10
2022-08-16T11:03:43.188Z,49.00
2022-08-16T11:06:39.913Z,50.09
2022-08-16T11:07:52.174Z,49.49
2022-08-16T11:08:43.341Z,49.29
2022-08-16T11:09:43.214Z,49.89
2022-08-16T11:12:13.322Z,50.48
2022-08-16T11:12:39.821Z,50.18
2022-08-16T11:14:39.862Z,50.29
2022-08-16T11:15:38.677Z,50.66
2022-08-16T11:17:39.672Z,48.48
2022-08-16T11:18:48.272Z,47.59
2022-08-16T11:20:42.083Z,46.58
2022-08-16T11:22:23.390Z,47.37
2022-08-16T11:22:48.457Z,47.54
2022-08-16T11:23:39.559Z,47.34
2022-08-16T11:24:43.350Z,46.26
2022-08-16T11:26:39.539Z,46.36
2022-08-16T11:27:38.529Z,46.26
2022-08-16T11:29:39.497Z,45.57
2022-08-16T11:30:39.323Z,46.85
2022-08-16T11:31:38.452Z,47.64
2022-08-16T11:32:38.461Z,47.44
2022-08-16T11:33:55.058Z,47.64
2022-08-16T11:35:05.703Z,48.03
2022-08-16T11:36:39.442Z,46.66
2022-08-16T11:38:51.740Z,46.26
2022-08-16T11:39:39.473Z,46.75
2022-08-16T11:40:38.462Z,47.25
2022-08-16T11:41:38.343Z,48.55
2022-08-16T11:42:39.322Z,47.44
2022-08-16T11:43:38.351Z,46.75
2022-08-16T11:44:52.016Z,47.34
2022-08-16T11:45:39.265Z,46.55
2022-08-16T11:46:42.894Z,46.18
2022-08-16T11:47:39.252Z,47.37
2022-08-16T11:48:38.273Z,48.46
2022-08-16T11:49:38.246Z,48.93
2022-08-16T11:50:38.352Z,47.34
2022-08-16T11:51:38.241Z,47.72
2022-08-16T11:52:38.197Z,47.13
2022-08-16T11:53:38.274Z,46.83
2022-08-16T11:54:38.145Z,47.62
2022-08-16T11:55:38.503Z,46.93
2022-08-16T11:56:51.516Z,47.32
2022-08-16T11:57:39.104Z,46.70
2022-08-16T11:58:38.107Z,46.51
2022-08-16T11:59:39.941Z,46.11
2022-08-16T12:00:50.382Z,45.32
2022-08-16T12:01:55.018Z,45.92
2022-08-16T12:02:39.074Z,44.83
2022-08-16T12:03:39.076Z,46.01
2022-08-16T12:04:38.101Z,44.81
2022-08-16T12:05:38.064Z,45.10
2022-08-16T12:06:37.993Z,46.48
2022-08-16T12:07:37.983Z,45.70
2022-08-16T12:08:38.017Z,45.20
2022-08-16T12:09:43.220Z,45.48
2022-08-16T12:10:38.936Z,44.98
2022-08-16T12:11:37.908Z,44.39
2022-08-16T12:12:37.956Z,45.28
2022-08-16T12:13:37.906Z,45.97
2022-08-16T12:14:37.878Z,45.18
2022-08-16T12:15:37.962Z,45.36
2022-08-16T12:16:37.868Z,43.29
2022-08-16T12:17:37.856Z,43.59
2022-08-16T12:18:37.859Z,44.07
2022-08-16T12:19:38.044Z,44.47
2022-08-16T12:20:37.827Z,43.78
2022-08-16T12:21:58.198Z,44.87
2022-08-16T12:22:38.769Z,45.24
2022-08-16T12:23:37.762Z,44.55
2022-08-16T12:24:37.749Z,43.05
2022-08-16T12:25:37.721Z,43.44
2022-08-16T12:26:37.717Z,43.15
2022-08-16T12:27:39.397Z,43.44
2022-08-16T12:28:55.935Z,43.54
2022-08-16T12:29:38.671Z,42.76
2022-08-16T12:30:38.733Z,43.24
2022-08-16T12:31:37.641Z,41.96
2022-08-16T12:32:41.748Z,42.65
2022-08-16T12:33:44.517Z,42.95
2022-08-16T12:34:38.631Z,42.65
2022-08-16T12:35:38.602Z,41.57
2022-08-16T12:36:37.601Z,41.86
2022-08-16T12:37:38.847Z,42.68
2022-08-16T12:38:41.463Z,42.38
2022-08-16T12:39:38.664Z,42.18
2022-08-16T12:40:38.589Z,41.99
2022-08-16T12:41:37.512Z,42.28
2022-08-16T12:42:38.517Z,42.28
2022-08-16T12:43:42.297Z,42.18
2022-08-16T12:44:38.525Z,43.07
2022-08-16T12:45:37.476Z,43.17
2022-08-16T12:46:37.453Z,41.39
2022-08-16T12:47:37.454Z,41.30
2022-08-16T12:48:37.452Z,41.89
2022-08-16T12:49:41.819Z,42.47
2022-08-16T12:50:38.394Z,42.65
2022-08-16T12:51:59.640Z,42.65
2022-08-16T12:52:44.448Z,43.23
2022-08-16T12:53:39.854Z,43.13
2022-08-16T12:54:37.336Z,42.44
2022-08-16T12:55:42.046Z,43.24
2022-08-16T12:56:38.347Z,42.65
2022-08-16T12:57:37.296Z,42.68
2022-08-16T12:58:49.392Z,42.89
2022-08-16T12:59:38.734Z,43.59
2022-08-16T13:00:37.345Z,42.97
2022-08-16T13:01:37.255Z,42.77
2022-08-16T13:02:37.288Z,42.47
2022-08-16T13:03:40.496Z,41.78
2022-08-16T13:04:37.219Z,42.38